createdAt,value
2023-02-05T00:00:46.176Z,13.20
2023-02-05T00:03:13.762Z,13.23
2023-02-05T00:05:41.222Z,13.73
2023-02-05T00:08:08.836Z,15.37
2023-02-05T00:10:36.291Z,12.20
2023-02-05T00:13:03.959Z,13.90
2023-02-05T00:15:31.994Z,13.60
2023-02-05T00:17:59.669Z,13.40
2023-02-05T00:20:27.145Z,13.80
2023-02-05T00:22:54.743Z,15.70
2023-02-05T00:25:22.240Z,14.37
2023-02-05T00:27:49.829Z,15.03
2023-02-05T00:30:17.298Z,14.10
2023-02-05T00:32:44.911Z,15.27
2023-02-05T00:35:12.440Z,14.73
2023-02-05T00:37:40.010Z,15.40
2023-02-05T00:40:07.681Z,15.13
2023-02-05T00:42:35.255Z,14.50
2023-02-05T00:45:02.716Z,14.37
2023-02-05T00:47:30.301Z,14.47
2023-02-05T00:49:57.866Z,14.33
2023-02-05T00:52:25.403Z,15.20
2023-02-05T00:54:52.912Z,13.90
2023-02-05T00:57:20.435Z,14.03
2023-02-05T00:59:47.878Z,14.73
2023-02-05T01:02:15.463Z,15.90
2023-02-05T01:04:42.936Z,13.83
2023-02-05T01:07:10.424Z,14.70
2023-02-05T01:09:37.948Z,13.80
2023-02-05T01:12:05.577Z,13.60
2023-02-05T01:14:33.064Z,15.13
2023-02-05T01:17:00.622Z,14.37
2023-02-05T01:19:28.121Z,13.63
2023-02-05T01:21:55.957Z,14.10
2023-02-05T01:24:23.424Z,12.57
2023-02-05T01:26:51.020Z,13.43
2023-02-05T01:29:18.543Z,13.10
2023-02-05T01:31:46.221Z,12.97
2023-02-05T01:34:13.939Z,13.03
2023-02-05T01:36:41.486Z,13.30
2023-02-05T01:39:09.012Z,12.20
2023-02-05T01:41:36.598Z,13.53
2023-02-05T01:44:08.989Z,14.27
2023-02-05T01:46:37.529Z,13.83
2023-02-05T01:49:06.501Z,13.70
2023-02-05T01:51:35.807Z,14.93
2023-02-05T01:54:03.937Z,13.47
2023-02-05T01:56:37.074Z,13.93
2023-02-05T01:59:09.349Z,14.03
2023-02-05T02:01:37.323Z,12.90
2023-02-05T02:04:05.109Z,12.83
2023-02-05T02:06:35.599Z,13.20
2023-02-05T02:09:03.802Z,14.37
2023-02-05T02:11:33.999Z,13.63
2023-02-05T02:14:02.683Z,13.97
2023-02-05T02:16:30.725Z,12.67
2023-02-05T02:18:58.285Z,11.97
2023-02-05T02:21:32.043Z,13.37
2023-02-05T02:24:08.821Z,13.17
2023-02-05T02:26:39.180Z,12.77
2023-02-05T02:29:07.689Z,13.67
2023-02-05T02:31:51.606Z,12.40
2023-02-05T02:34:21.079Z,11.80
2023-02-05T02:36:52.864Z,12.37
2023-02-05T02:39:22.430Z,14.43
2023-02-05T02:41:55.067Z,12.33
2023-02-05T02:44:34.837Z,13.10
2023-02-05T02:47:05.669Z,11.90
2023-02-05T02:49:38.022Z,12.27
2023-02-05T02:52:07.589Z,11.50
2023-02-05T02:54:36.944Z,13.73
2023-02-05T02:57:05.601Z,11.93
2023-02-05T02:59:35.801Z,13.07
2023-02-05T03:02:04.960Z,12.57
2023-02-05T03:04:37.937Z,13.03
2023-02-05T03:07:19.016Z,12.83
2023-02-05T03:09:51.291Z,12.63
2023-02-05T03:12:19.398Z,13.17
2023-02-05T03:14:46.984Z,14.80
2023-02-05T03:17:15.265Z,15.63
2023-02-05T03:19:42.792Z,14.83
2023-02-05T03:22:10.315Z,15.93
2023-02-05T03:24:38.549Z,14.63
2023-02-05T03:27:06.087Z,16.40
2023-02-05T03:29:35.921Z,17.77
2023-02-05T03:32:17.032Z,18.07
2023-02-05T03:34:53.745Z,19.13
2023-02-05T03:37:21.266Z,19.10
2023-02-05T03:40:00.316Z,17.93
2023-02-05T03:42:30.633Z,19.93
2023-02-05T03:45:17.016Z,21.70
2023-02-05T03:47:47.308Z,20.23
2023-02-05T03:50:14.799Z,21.80
2023-02-05T03:52:43.700Z,21.90
2023-02-05T03:55:23.021Z,21.20
2023-02-05T03:58:13.949Z,21.47
2023-02-05T04:00:42.189Z,23.53
2023-02-05T04:03:09.671Z,22.50
2023-02-05T04:05:37.261Z,24.27
2023-02-05T04:08:04.942Z,25.03
2023-02-05T04:10:32.491Z,25.43
2023-02-05T04:12:59.997Z,24.97
2023-02-05T04:15:27.669Z,24.73
2023-02-05T04:17:55.150Z,26.50
2023-02-05T04:20:22.638Z,27.37
2023-02-05T04:22:50.112Z,25.87
2023-02-05T04:25:17.790Z,26.17
2023-02-05T04:27:51.462Z,25.03
2023-02-05T04:30:19.870Z,24.93
2023-02-05T04:32:48.341Z,24.70
2023-02-05T04:35:15.976Z,26.07
2023-02-05T04:37:43.432Z,23.60
2023-02-05T04:40:11.098Z,23.53
2023-02-05T04:42:38.691Z,23.03
2023-02-05T04:45:06.482Z,22.83
2023-02-05T04:47:37.058Z,22.13
2023-02-05T04:50:05.051Z,22.43
2023-02-05T04:52:32.573Z,22.03
2023-02-05T04:55:00.113Z,22.20
2023-02-05T04:57:27.597Z,22.43
2023-02-05T04:59:57.164Z,25.07
2023-02-05T05:02:24.819Z,23.50
2023-02-05T05:04:52.295Z,26.63
2023-02-05T05:07:19.872Z,26.57
2023-02-05T05:09:47.362Z,27.03
2023-02-05T05:12:14.933Z,27.37
2023-02-05T05:14:42.519Z,27.20
2023-02-05T05:17:10.042Z,28.33
2023-02-05T05:19:37.588Z,30.03
2023-02-05T05:22:05.248Z,29.40
2023-02-05T05:24:32.846Z,29.40
2023-02-05T05:27:00.553Z,31.07
2023-02-05T05:29:28.065Z,30.20
2023-02-05T05:31:55.648Z,30.83
2023-02-05T05:34:23.165Z,32.30
2023-02-05T05:36:50.806Z,30.40
2023-02-05T05:39:18.292Z,31.87
2023-02-05T05:41:45.887Z,29.23
2023-02-05T05:44:13.406Z,31.60
2023-02-05T05:46:40.972Z,28.60
2023-02-05T05:49:08.797Z,29.57
2023-02-05T05:51:36.392Z,29.33
2023-02-05T05:54:03.908Z,28.70
2023-02-05T05:56:31.414Z,30.20
2023-02-05T05:58:58.968Z,27.17
2023-02-05T06:01:26.550Z,27.17
2023-02-05T06:03:54.256Z,28.53
2023-02-05T06:06:22.683Z,28.33
2023-02-05T06:08:50.171Z,24.70
2023-02-05T06:11:17.668Z,23.53
2023-02-05T06:13:45.128Z,25.13
2023-02-05T06:16:12.899Z,26.03
2023-02-05T06:18:40.427Z,24.93
2023-02-05T06:21:07.996Z,24.43
2023-02-05T06:23:35.499Z,23.10
2023-02-05T06:26:04.226Z,22.43
2023-02-05T06:28:31.709Z,23.40
2023-02-05T06:30:59.354Z,23.87
2023-02-05T06:33:26.925Z,20.07
2023-02-05T06:35:54.475Z,20.73
2023-02-05T06:38:21.993Z,18.43
2023-02-05T06:40:49.778Z,19.63
2023-02-05T06:43:17.299Z,19.07
2023-02-05T06:45:44.849Z,18.57
2023-02-05T06:48:13.532Z,18.70
2023-02-05T06:50:41.134Z,18.57
2023-02-05T06:53:12.016Z,18.10
2023-02-05T06:55:39.751Z,18.40
2023-02-05T06:58:07.261Z,16.47
2023-02-05T07:00:35.358Z,17.10
2023-02-05T07:03:02.954Z,16.70
2023-02-05T07:05:30.529Z,16.20
2023-02-05T07:07:58.047Z,16.23
2023-02-05T07:10:25.557Z,17.37
2023-02-05T07:12:53.041Z,16.10
2023-02-05T07:15:20.612Z,17.77
2023-02-05T07:17:48.072Z,17.90
2023-02-05T07:20:15.618Z,17.00
2023-02-05T07:22:43.215Z,17.47
2023-02-05T07:25:10.753Z,18.13
2023-02-05T07:27:38.215Z,16.17
2023-02-05T07:30:06.099Z,16.43
2023-02-05T07:32:33.691Z,16.50
2023-02-05T07:35:01.183Z,17.13
2023-02-05T07:37:28.667Z,16.90
2023-02-05T07:39:56.171Z,16.07
2023-02-05T07:42:23.754Z,15.27
2023-02-05T07:44:53.583Z,15.27
2023-02-05T07:47:21.073Z,17.27
2023-02-05T07:49:48.516Z,15.77
2023-02-05T07:52:16.049Z,16.47
2023-02-05T07:54:43.557Z,16.67
2023-02-05T07:57:11.075Z,16.90
2023-02-05T07:59:38.597Z,17.63
2023-02-05T08:02:06.470Z,15.73
2023-02-05T08:04:34.090Z,16.07
2023-02-05T08:07:01.649Z,14.00
2023-02-05T08:09:29.111Z,13.93
2023-02-05T08:11:56.621Z,13.37
2023-02-05T08:14:24.142Z,12.57
2023-02-05T08:16:51.652Z,12.87
2023-02-05T08:19:19.127Z,9.00
2023-02-05T08:21:46.683Z,5.93
2023-02-05T08:24:14.170Z,4.93
2023-02-05T08:26:41.743Z,5.80
2023-02-05T08:29:09.777Z,2.83
2023-02-05T08:31:37.814Z,2.03
2023-02-05T08:34:05.395Z,2.07
2023-02-05T08:36:33.046Z,1.60
2023-02-05T08:39:00.554Z,1.43
2023-02-05T08:41:28.488Z,1.60
2023-02-05T08:43:55.960Z,1.13
2023-02-05T08:46:24.271Z,1.20
2023-02-05T08:48:51.917Z,0.90
2023-02-05T08:51:19.910Z,1.80
2023-02-05T08:53:47.476Z,1.10
2023-02-05T08:56:15.388Z,1.07
2023-02-05T08:58:43.089Z,1.03
2023-02-05T09:01:12.597Z,1.13
2023-02-05T09:03:40.182Z,1.30
2023-02-05T09:06:14.998Z,1.23
2023-02-05T09:08:42.662Z,1.40
2023-02-05T09:11:10.190Z,1.23
2023-02-05T09:13:37.780Z,1.33
2023-02-05T09:16:05.441Z,1.07
2023-02-05T09:18:32.968Z,1.77
2023-02-05T09:21:00.454Z,1.40
2023-02-05T09:23:28.026Z,1.10
2023-02-05T09:25:55.635Z,1.93
2023-02-05T09:28:23.222Z,1.47
2023-02-05T09:30:50.746Z,1.50
2023-02-05T09:33:18.443Z,1.30
2023-02-05T09:35:46.019Z,1.77
2023-02-05T09:38:14.114Z,1.47
2023-02-05T09:40:41.581Z,1.87
2023-02-05T09:43:19.130Z,2.00
2023-02-05T09:45:52.675Z,2.37
2023-02-05T09:48:39.225Z,2.07
2023-02-05T09:51:10.278Z,2.17
2023-02-05T09:53:40.434Z,1.53
2023-02-05T09:56:08.629Z,2.00
2023-02-05T09:58:40.823Z,1.70
2023-02-05T10:01:13.360Z,1.77
2023-02-05T10:03:52.508Z,1.77
2023-02-05T10:06:20.026Z,1.30
2023-02-05T10:08:50.544Z,1.30
2023-02-05T10:11:34.905Z,1.63
2023-02-05T10:14:10.731Z,1.70
2023-02-05T10:16:55.052Z,1.53
2023-02-05T10:19:27.843Z,1.40
2023-02-05T10:22:02.273Z,1.33
2023-02-05T10:24:45.035Z,2.17
2023-02-05T10:27:26.427Z,1.90
2023-02-05T10:30:12.607Z,1.60
2023-02-05T10:32:47.150Z,2.60
2023-02-05T10:35:24.614Z,2.20
2023-02-05T10:37:53.295Z,1.50
2023-02-05T10:40:22.629Z,1.63
2023-02-05T10:43:10.419Z,2.37
2023-02-05T10:45:38.033Z,2.83
2023-02-05T10:48:08.338Z,2.83
2023-02-05T10:50:41.728Z,2.23
2023-02-05T10:53:09.287Z,2.07
2023-02-05T10:55:37.300Z,2.90
2023-02-05T10:58:17.217Z,2.47
2023-02-05T11:00:44.818Z,2.53
2023-02-05T11:03:17.171Z,2.30
2023-02-05T11:05:45.303Z,1.90
2023-02-05T11:08:31.719Z,2.70
2023-02-05T11:10:59.345Z,2.47
2023-02-05T11:13:27.664Z,1.50
2023-02-05T11:15:58.189Z,2.03
2023-02-05T11:18:28.443Z,2.27
2023-02-05T11:20:57.660Z,2.70
2023-02-05T11:23:26.009Z,1.73
2023-02-05T11:25:58.015Z,3.63
2023-02-05T11:28:32.676Z,2.67
2023-02-05T11:31:19.176Z,2.37
2023-02-05T11:33:47.097Z,2.27
2023-02-05T11:36:19.725Z,2.20
2023-02-05T11:38:49.267Z,2.47
2023-02-05T11:41:29.095Z,3.03
2023-02-05T11:43:58.266Z,2.43
2023-02-05T11:46:26.775Z,2.97
2023-02-05T11:48:57.606Z,2.50
2023-02-05T11:51:30.088Z,1.77
2023-02-05T11:53:59.379Z,3.70
2023-02-05T11:56:27.107Z,2.53
2023-02-05T11:59:00.695Z,2.73
2023-02-05T12:01:29.267Z,3.17
2023-02-05T12:04:01.230Z,1.90
2023-02-05T12:06:35.848Z,2.00
2023-02-05T12:09:03.804Z,2.37
2023-02-05T12:11:40.366Z,2.10
2023-02-05T12:14:14.384Z,2.33
2023-02-05T12:16:46.595Z,1.80
2023-02-05T12:19:22.577Z,2.23
2023-02-05T12:21:51.592Z,2.37
2023-02-05T12:24:33.508Z,1.60
2023-02-05T12:27:39.453Z,1.63
2023-02-05T12:30:09.624Z,1.37
2023-02-05T12:32:43.093Z,1.80
2023-02-05T12:35:33.337Z,1.60
2023-02-05T12:38:31.971Z,1.80
2023-02-05T12:41:16.351Z,1.80
2023-02-05T12:43:57.020Z,2.20
2023-02-05T12:46:46.630Z,1.47
2023-02-05T12:49:20.491Z,1.60
2023-02-05T12:51:48.060Z,1.50
2023-02-05T12:54:21.686Z,1.97
2023-02-05T12:56:50.359Z,1.60
2023-02-05T12:59:20.174Z,2.03
2023-02-05T13:01:53.987Z,1.60
2023-02-05T13:04:23.626Z,1.67
2023-02-05T13:06:53.908Z,2.27
2023-02-05T13:09:25.060Z,1.63
2023-02-05T13:12:01.319Z,1.70
2023-02-05T13:14:31.077Z,1.60
2023-02-05T13:17:01.650Z,1.80
2023-02-05T13:19:29.173Z,1.47
2023-02-05T13:21:57.632Z,1.70
2023-02-05T13:24:39.201Z,1.83
2023-02-05T13:27:15.032Z,2.03
2023-02-05T13:29:45.441Z,1.40
2023-02-05T13:32:16.285Z,1.50
2023-02-05T13:34:44.159Z,1.73
2023-02-05T13:37:21.342Z,1.63
2023-02-05T13:39:48.892Z,2.00
2023-02-05T13:42:16.349Z,2.50
2023-02-05T13:44:43.842Z,1.83
2023-02-05T13:47:14.286Z,2.07
2023-02-05T13:49:41.816Z,2.50
2023-02-05T13:52:38.669Z,2.37
2023-02-05T13:55:26.420Z,1.60
2023-02-05T13:58:02.661Z,2.50
2023-02-05T14:00:30.257Z,1.40
2023-02-05T14:02:58.458Z,2.10
2023-02-05T14:05:46.278Z,2.63
2023-02-05T14:08:22.630Z,2.63
2023-02-05T14:10:57.354Z,1.70
2023-02-05T14:13:26.635Z,1.50
2023-02-05T14:15:54.179Z,1.87
2023-02-05T14:18:39.961Z,2.07
2023-02-05T14:21:26.113Z,1.70
2023-02-05T14:23:54.637Z,1.83
2023-02-05T14:26:42.069Z,2.23
2023-02-05T14:29:29.595Z,2.77
2023-02-05T14:31:57.180Z,2.37
2023-02-05T14:34:29.159Z,2.33
2023-02-05T14:36:57.394Z,1.97
2023-02-05T14:39:32.952Z,1.67
2023-02-05T14:42:02.560Z,1.43
2023-02-05T14:44:31.841Z,2.83
2023-02-05T14:47:05.401Z,2.20
2023-02-05T14:49:36.051Z,1.83
2023-02-05T14:52:03.556Z,2.00
2023-02-05T14:54:33.158Z,2.93
2023-02-05T14:57:09.919Z,2.73
2023-02-05T14:59:40.789Z,3.13
2023-02-05T15:02:28.362Z,2.70
2023-02-05T15:04:56.240Z,2.70
2023-02-05T15:07:25.855Z,2.73
2023-02-05T15:10:13.878Z,2.50
2023-02-05T15:12:47.344Z,2.63
2023-02-05T15:15:32.002Z,2.70
2023-02-05T15:18:18.359Z,3.27
2023-02-05T15:20:47.573Z,2.73
2023-02-05T15:23:41.434Z,3.43
2023-02-05T15:26:27.756Z,3.20
2023-02-05T15:28:58.296Z,2.90
2023-02-05T15:31:38.222Z,4.00
2023-02-05T15:34:05.832Z,3.17
2023-02-05T15:36:46.114Z,3.10
2023-02-05T15:39:20.327Z,3.00
2023-02-05T15:41:48.391Z,3.97
2023-02-05T15:44:42.363Z,3.07
2023-02-05T15:47:15.294Z,2.63
2023-02-05T15:49:48.392Z,3.87
2023-02-05T15:52:21.001Z,3.73
2023-02-05T15:54:49.101Z,4.00
2023-02-05T15:57:28.073Z,2.87
2023-02-05T15:59:56.929Z,3.03
2023-02-05T16:02:28.855Z,3.53
2023-02-05T16:04:57.772Z,3.00
2023-02-05T16:07:27.544Z,2.50
2023-02-05T16:09:59.445Z,3.33
2023-02-05T16:12:27.453Z,2.70
2023-02-05T16:15:01.884Z,3.57
2023-02-05T16:17:34.512Z,3.97
2023-02-05T16:20:04.772Z,2.93
2023-02-05T16:22:35.337Z,3.03
2023-02-05T16:25:05.405Z,2.50
2023-02-05T16:27:36.513Z,4.33
2023-02-05T16:30:07.570Z,4.23
2023-02-05T16:32:35.059Z,3.63
2023-02-05T16:35:04.689Z,3.63
2023-02-05T16:37:32.593Z,4.17
2023-02-05T16:40:01.665Z,3.17
2023-02-05T16:42:31.953Z,4.07
2023-02-05T16:45:05.613Z,4.27
2023-02-05T16:47:33.135Z,3.43
2023-02-05T16:50:00.754Z,3.10
2023-02-05T16:52:35.239Z,3.23
2023-02-05T16:55:28.677Z,3.37
2023-02-05T16:57:56.810Z,2.73
2023-02-05T17:00:25.445Z,3.00
2023-02-05T17:02:53.860Z,3.43
2023-02-05T17:05:29.476Z,2.83
2023-02-05T17:08:01.148Z,2.60
2023-02-05T17:10:28.923Z,3.10
2023-02-05T17:13:03.618Z,3.47
2023-02-05T17:15:33.026Z,4.50
2023-02-05T17:18:02.481Z,3.50
2023-02-05T17:20:30.031Z,4.33
2023-02-05T17:23:03.458Z,3.67
2023-02-05T17:25:37.137Z,3.30
2023-02-05T17:28:04.927Z,3.53
2023-02-05T17:30:32.983Z,3.67
2023-02-05T17:33:00.652Z,4.23
2023-02-05T17:35:28.172Z,4.33
2023-02-05T17:37:55.682Z,3.67
2023-02-05T17:40:23.197Z,4.53
2023-02-05T17:42:50.821Z,3.67
2023-02-05T17:45:23.686Z,4.43
2023-02-05T17:47:51.493Z,3.80
2023-02-05T17:50:19.225Z,4.90
2023-02-05T17:52:46.774Z,6.30
2023-02-05T17:55:15.503Z,4.40
2023-02-05T17:57:43.282Z,4.03
2023-02-05T18:00:15.364Z,3.87
2023-02-05T18:02:42.899Z,5.27
2023-02-05T18:05:10.415Z,3.77
2023-02-05T18:07:43.374Z,4.13
2023-02-05T18:10:12.518Z,4.30
2023-02-05T18:12:40.066Z,3.57
2023-02-05T18:15:07.816Z,4.20
2023-02-05T18:17:35.706Z,3.53
2023-02-05T18:20:03.371Z,4.17
2023-02-05T18:22:31.504Z,4.13
2023-02-05T18:24:59.042Z,4.33
2023-02-05T18:27:26.531Z,3.40
2023-02-05T18:29:54.192Z,4.90
2023-02-05T18:32:21.774Z,3.53
2023-02-05T18:34:49.501Z,4.47
2023-02-05T18:37:17.462Z,3.27
2023-02-05T18:39:45.802Z,3.70
2023-02-05T18:42:13.532Z,4.60
2023-02-05T18:44:41.111Z,3.70
2023-02-05T18:47:09.051Z,3.40
2023-02-05T18:49:36.570Z,4.07
2023-02-05T18:52:04.160Z,4.50
2023-02-05T18:54:31.814Z,3.50
2023-02-05T18:56:59.396Z,3.83
2023-02-05T18:59:26.923Z,3.43
2023-02-05T19:01:54.528Z,4.47
2023-02-05T19:04:22.237Z,3.90
2023-02-05T19:06:51.168Z,4.70
2023-02-05T19:09:19.595Z,3.80
2023-02-05T19:11:47.140Z,5.37
2023-02-05T19:14:16.184Z,3.87
2023-02-05T19:16:43.810Z,4.17
2023-02-05T19:19:13.381Z,5.10
2023-02-05T19:21:40.998Z,5.23
2023-02-05T19:24:08.827Z,3.43
2023-02-05T19:26:37.615Z,4.30
2023-02-05T19:29:06.716Z,4.13
2023-02-05T19:31:35.073Z,4.70
2023-02-05T19:34:02.951Z,3.97
2023-02-05T19:36:30.710Z,3.67
2023-02-05T19:39:00.045Z,4.73
2023-02-05T19:41:27.970Z,5.50
2023-02-05T19:43:56.541Z,4.00
2023-02-05T19:46:28.160Z,5.13
2023-02-05T19:48:56.796Z,4.40
2023-02-05T19:51:24.271Z,4.17
2023-02-05T19:53:51.865Z,4.90
2023-02-05T19:56:20.611Z,5.50
2023-02-05T19:58:50.072Z,3.87
2023-02-05T20:01:17.540Z,4.33
2023-02-05T20:03:46.000Z,5.40
2023-02-05T20:06:17.557Z,4.17
2023-02-05T20:08:45.336Z,3.40
2023-02-05T20:11:13.388Z,6.50
2023-02-05T20:13:41.253Z,3.87
2023-02-05T20:16:10.226Z,4.13
2023-02-05T20:18:38.637Z,3.70
2023-02-05T20:21:06.765Z,5.00
2023-02-05T20:23:34.444Z,3.73
2023-02-05T20:26:01.996Z,6.30
2023-02-05T20:28:29.603Z,3.80
2023-02-05T20:30:57.230Z,4.13
2023-02-05T20:33:24.874Z,4.90
2023-02-05T20:35:52.396Z,5.07
2023-02-05T20:38:19.967Z,4.97
2023-02-05T20:40:47.441Z,4.30
2023-02-05T20:43:14.976Z,5.63
2023-02-05T20:45:42.441Z,4.60
2023-02-05T20:48:09.957Z,5.47
2023-02-05T20:50:37.484Z,6.23
2023-02-05T20:53:05.067Z,5.33
2023-02-05T20:55:32.591Z,5.50
2023-02-05T20:58:00.354Z,5.20
2023-02-05T21:00:28.009Z,5.20
2023-02-05T21:02:55.564Z,4.43
2023-02-05T21:05:23.058Z,6.47
2023-02-05T21:07:52.671Z,5.47
2023-02-05T21:10:20.328Z,6.53
2023-02-05T21:12:47.824Z,5.73
2023-02-05T21:15:15.407Z,5.07
2023-02-05T21:17:46.017Z,5.03
2023-02-05T21:20:13.685Z,5.10
2023-02-05T21:22:41.250Z,4.50
2023-02-05T21:25:08.962Z,6.23
2023-02-05T21:27:37.620Z,6.00
2023-02-05T21:30:05.330Z,6.73
2023-02-05T21:32:32.820Z,5.73
2023-02-05T21:35:00.392Z,6.17
2023-02-05T21:37:27.925Z,5.93
2023-02-05T21:40:08.498Z,5.93
2023-02-05T21:42:36.986Z,6.77
2023-02-05T21:45:05.035Z,6.40
2023-02-05T21:47:32.581Z,6.07
2023-02-05T21:50:00.160Z,5.63
2023-02-05T21:52:27.713Z,5.73
2023-02-05T21:54:55.251Z,6.20
2023-02-05T21:57:22.816Z,4.57
2023-02-05T21:59:50.344Z,4.60
2023-02-05T22:02:18.107Z,4.73
2023-02-05T22:04:45.655Z,5.10
2023-02-05T22:07:13.200Z,4.77
2023-02-05T22:09:40.733Z,5.50
2023-02-05T22:12:08.523Z,5.17
2023-02-05T22:14:36.887Z,5.93
2023-02-05T22:17:04.475Z,5.10
2023-02-05T22:19:31.945Z,5.20
2023-02-05T22:21:59.432Z,7.00
2023-02-05T22:24:26.945Z,5.23
2023-02-05T22:26:54.664Z,5.00
2023-02-05T22:29:22.126Z,5.00
2023-02-05T22:31:50.407Z,5.47
2023-02-05T22:34:18.051Z,4.17
2023-02-05T22:36:45.596Z,5.37
2023-02-05T22:39:13.149Z,5.53
2023-02-05T22:41:41.604Z,5.70
2023-02-05T22:44:10.100Z,5.63
2023-02-05T22:46:39.204Z,5.67
2023-02-05T22:49:07.077Z,5.60
2023-02-05T22:51:36.180Z,5.17
2023-02-05T22:54:03.891Z,6.47
2023-02-05T22:56:31.724Z,6.40
2023-02-05T22:59:01.965Z,5.33
2023-02-05T23:01:31.936Z,5.97
2023-02-05T23:03:59.974Z,5.50
2023-02-05T23:06:29.538Z,4.67
2023-02-05T23:09:07.688Z,4.53
2023-02-05T23:11:35.575Z,4.93
2023-02-05T23:14:03.947Z,6.53
2023-02-05T23:16:33.102Z,5.60
2023-02-05T23:19:02.434Z,6.00
2023-02-05T23:21:30.944Z,5.53
2023-02-05T23:23:58.778Z,5.93
2023-02-05T23:26:27.613Z,4.97
2023-02-05T23:28:55.560Z,5.47
2023-02-05T23:31:24.425Z,4.57
2023-02-05T23:33:52.531Z,6.27
2023-02-05T23:36:20.501Z,6.03
2023-02-05T23:38:48.058Z,6.27
2023-02-05T23:41:15.610Z,5.90
2023-02-05T23:43:43.103Z,5.00
2023-02-05T23:46:10.715Z,5.23
2023-02-05T23:48:38.276Z,6.03
2023-02-05T23:51:05.787Z,5.43
2023-02-05T23:53:33.216Z,6.53
2023-02-05T23:56:01.490Z,6.13
2023-02-05T23:58:28.949Z,4.40
